Time;durP1;ratioP1;P1;durP2;ratioP2;P2;SDS_P1;SDS_P2;PMS_P1;PMS_P2;Temp;Humidity;BMP_temperature;BMP_pressure;BME280_temperature;BME280_humidity;BME280_pressure;Samples;Min_cycle;Max_cycle;Signal;HPM_P1;HPM_P2
2022/10/09 00:00:28;;;;;;;10.03;6.00;;;;;;;-143.84;66.22;45127.13;5111861;28;20582;-74
2022/10/09 00:02:57;;;;;;;10.40;7.00;;;;;;;-143.84;66.04;45102.38;5111405;28;20477;-74
2022/10/09 00:05:25;;;;;;;8.63;6.63;;;;;;;-143.84;65.96;45121.44;5112313;28;20453;-73
2022/10/09 00:07:53;;;;;;;12.50;7.37;;;;;;;-143.84;65.67;45119.53;5112298;28;20468;-72
2022/10/09 00:10:20;;;;;;;9.00;7.07;;;;;;;-143.84;65.98;45115.72;5112061;28;20451;-72
2022/10/09 00:12:48;;;;;;;7.67;6.83;;;;;;;-143.84;65.97;45127.13;5112424;28;20430;-76
2022/10/09 00:15:15;;;;;;;8.23;7.10;;;;;;;-143.84;65.90;45102.38;5112287;28;20665;-76
2022/10/09 00:17:42;;;;;;;16.20;6.73;;;;;;;-143.84;65.90;45119.53;5112208;28;20439;-72
2022/10/09 00:20:11;;;;;;;8.43;6.67;;;;;;;-143.84;66.16;45111.91;5112174;28;20457;-73
2022/10/09 00:22:39;;;;;;;7.63;6.93;;;;;;;-143.84;66.07;45115.72;5111776;28;20829;-73
2022/10/09 00:25:07;;;;;;;8.90;7.07;;;;;;;-143.84;65.92;45102.38;5111824;28;20450;-72
2022/10/09 00:27:34;;;;;;;14.00;7.27;;;;;;;-143.84;65.87;45117.63;5111888;28;20836;-73
2022/10/09 00:30:01;;;;;;;8.87;6.47;;;;;;;-143.84;65.96;45121.44;5113473;27;20443;-73
2022/10/09 00:32:28;;;;;;;11.43;7.57;;;;;;;-143.84;66.20;45115.72;5112472;28;20438;-73
2022/10/09 00:34:55;;;;;;;6.60;5.60;;;;;;;-143.84;65.88;45094.78;5111886;28;20442;-73
2022/10/09 00:37:24;;;;;;;9.90;6.80;;;;;;;-143.84;65.85;45104.28;5112053;27;20441;-73
2022/10/09 00:39:51;;;;;;;12.10;6.37;;;;;;;-143.84;65.88;45129.03;5111710;28;20450;-74
2022/10/09 00:42:18;;;;;;;15.33;6.90;;;;;;;-143.84;65.92;45123.34;5111590;28;20489;-73
2022/10/09 00:44:56;;;;;;;10.70;6.70;;;;;;;-143.84;65.67;45121.44;5130989;27;20484;-73
2022/10/09 00:47:30;;;;;;;8.23;6.93;;;;;;;-143.84;65.62;45115.72;5132469;27;20486;-73
2022/10/09 00:50:01;;;;;;;14.07;6.90;;;;;;;-143.84;65.66;45117.63;5132183;27;20850;-73
2022/10/09 00:52:32;;;;;;;7.23;6.17;;;;;;;-143.84;65.76;45104.28;5132062;27;20448;-73
2022/10/09 00:55:02;;;;;;;11.73;6.90;;;;;;;-143.84;65.64;45108.09;5131928;27;20441;-73
2022/10/09 00:57:31;;;;;;;7.73;6.47;;;;;;;-143.84;65.51;45102.38;5132034;27;21017;-73
2022/10/09 01:00:01;;;;;;;7.53;6.83;;;;;;;-143.84;65.51;45098.56;5132253;27;20450;-73
2022/10/09 01:02:29;;;;;;;10.00;7.00;;;;;;;-143.84;65.45;45106.19;5131939;27;20541;-73
2022/10/09 01:04:56;;;;;;;23.23;6.60;;;;;;;-143.84;65.42;45125.22;5131860;27;21000;-74
2022/10/09 01:07:35;;;;;;;8.30;5.30;;;;;;;-143.84;65.23;45125.22;5131943;27;20503;-73
2022/10/09 01:10:11;;;;;;;11.20;6.10;;;;;;;-143.84;65.47;45136.66;5131780;27;20438;-73
2022/10/09 01:12:46;;;;;;;10.43;6.30;;;;;;;-143.84;65.49;45098.56;5131750;27;20452;-73
2022/10/09 01:15:19;;;;;;;11.80;5.80;;;;;;;-143.84;65.59;45108.09;5131456;27;20486;-73
2022/10/09 01:17:55;;;;;;;7.30;6.03;;;;;;;-143.84;65.53;45117.63;5131713;27;20494;-73
2022/10/09 01:20:41;;;;;;;10.73;7.07;;;;;;;-143.84;65.44;45106.19;5131345;27;20497;-73
2022/10/09 01:23:27;;;;;;;11.90;6.47;;;;;;;-143.84;65.13;45125.22;5130956;27;20473;-75
2022/10/09 01:26:03;;;;;;;9.37;6.23;;;;;;;-143.84;65.28;45100.47;5131036;27;20528;-75
2022/10/09 01:28:32;;;;;;;8.27;5.90;;;;;;;-143.84;65.00;45102.38;5131196;27;20452;-76
2022/10/09 01:31:03;;;;;;;9.00;5.93;;;;;;;-143.84;64.77;45106.19;5131086;27;20439;-76
2022/10/09 01:33:32;;;;;;;10.97;6.40;;;;;;;-143.84;64.80;45108.09;5130893;27;20478;-76
2022/10/09 01:36:01;;;;;;;20.10;6.50;;;;;;;-143.84;64.90;45130.94;5130890;27;20442;-76
2022/10/09 01:38:29;;;;;;;6.00;5.50;;;;;;;-143.84;64.71;45115.72;5130935;27;20434;-76
2022/10/09 01:40:57;;;;;;;7.50;6.20;;;;;;;-143.84;64.67;45102.38;5131215;27;20453;-76
2022/10/09 01:43:24;;;;;;;14.60;6.20;;;;;;;-143.84;64.56;45108.09;5130712;27;20492;-76
2022/10/09 01:46:13;;;;;;;12.50;6.80;;;;;;;-143.84;64.56;45129.03;5130729;27;20437;-76
2022/10/09 01:48:42;;;;;;;10.17;6.40;;;;;;;-143.84;64.71;45110.00;5130486;27;20903;-76
2022/10/09 01:51:09;;;;;;;11.73;6.70;;;;;;;-143.84;64.67;45115.72;5130477;27;20502;-76
2022/10/09 01:53:37;;;;;;;9.17;6.93;;;;;;;-143.84;64.56;45108.09;5130490;27;20486;-76
2022/10/09 01:56:09;;;;;;;11.73;6.50;;;;;;;-143.84;64.34;45094.78;5130538;27;20924;-75
2022/10/09 01:58:40;;;;;;;8.70;6.63;;;;;;;-143.84;64.38;45098.56;5130517;27;20437;-75
2022/10/09 02:01:12;;;;;;;7.07;6.37;;;;;;;-143.84;64.29;45121.44;5130399;27;20437;-75
2022/10/09 02:03:44;;;;;;;9.00;6.73;;;;;;;-143.84;64.30;45111.91;5130304;27;20475;-75
2022/10/09 02:06:14;;;;;;;8.30;6.53;;;;;;;-143.84;64.31;45113.81;5130105;27;20506;-75
2022/10/09 02:08:43;;;;;;;11.17;6.80;;;;;;;-143.84;64.45;45111.91;5130289;27;20491;-75
2022/10/09 02:11:13;;;;;;;17.60;7.23;;;;;;;-143.84;64.79;45142.38;5130304;27;20445;-75
2022/10/09 02:13:41;;;;;;;14.77;6.40;;;;;;;-143.84;65.02;45111.91;5130134;27;20445;-75
2022/10/09 02:16:16;;;;;;;10.40;7.40;;;;;;;-143.84;64.91;45117.63;5130126;27;20446;-75
2022/10/09 02:18:48;;;;;;;8.00;6.90;;;;;;;-143.84;65.10;45113.81;5130264;27;20445;-75
2022/10/09 02:21:22;;;;;;;10.77;6.50;;;;;;;-143.84;65.10;45132.84;5129760;27;20675;-75
2022/10/09 02:23:51;;;;;;;11.80;8.00;;;;;;;-143.84;65.22;45090.97;5129388;27;20832;-75
2022/10/09 02:26:19;;;;;;;7.93;7.13;;;;;;;-143.84;65.10;45111.91;5129039;27;20474;-75
2022/10/09 02:28:47;;;;;;;10.93;7.03;;;;;;;-143.84;65.42;45121.44;5129241;27;20446;-75
2022/10/09 02:31:20;;;;;;;7.93;6.80;;;;;;;-143.84;65.29;45108.09;5130080;27;20442;-75
2022/10/09 02:33:55;;;;;;;9.63;6.10;;;;;;;-143.84;65.27;45115.72;5129412;27;20452;-75
2022/10/09 02:36:22;;;;;;;9.53;6.37;;;;;;;-143.84;65.53;45121.44;5130213;27;20445;-75
2022/10/09 02:38:49;;;;;;;10.10;6.90;;;;;;;-143.84;65.70;45106.19;5111763;27;20444;-75
2022/10/09 02:41:16;;;;;;;10.17;7.10;;;;;;;-143.84;65.56;45113.81;5129999;27;20960;-75
2022/10/09 02:43:43;;;;;;;12.73;7.10;;;;;;;-143.84;65.93;45117.63;5129427;27;20999;-75
2022/10/09 02:46:10;;;;;;;11.50;6.97;;;;;;;-143.84;65.71;45121.44;5129791;27;20436;-75
2022/10/09 02:48:38;;;;;;;17.53;8.37;;;;;;;-143.84;65.74;45127.13;5129780;27;20460;-75
2022/10/09 02:51:07;;;;;;;17.43;7.97;;;;;;;-143.84;65.44;45125.22;5129855;27;20839;-75
2022/10/09 02:53:34;;;;;;;9.83;6.30;;;;;;;-143.84;65.50;45115.72;5129755;28;20456;-75
2022/10/09 02:56:01;;;;;;;7.90;6.90;;;;;;;-143.84;65.55;45111.91;5129596;28;20441;-75
2022/10/09 02:58:30;;;;;;;10.47;7.47;;;;;;;-143.84;64.99;45096.66;5129074;28;20495;-75
2022/10/09 03:00:58;;;;;;;9.83;7.07;;;;;;;-143.84;64.74;45111.91;5129340;28;20499;-75
2022/10/09 03:03:25;;;;;;;11.83;6.80;;;;;;;-143.84;64.56;45121.44;5128501;28;20480;-76
2022/10/09 03:06:00;;;;;;;13.83;6.70;;;;;;;-143.84;64.37;45123.34;5129408;28;20438;-72
2022/10/09 03:08:29;;;;;;;11.47;6.00;;;;;;;-143.84;63.91;45117.63;5129794;28;21001;-73
2022/10/09 03:10:56;;;;;;;14.17;6.37;;;;;;;-143.84;63.59;45113.81;5130044;28;20525;-74
2022/10/09 03:13:24;;;;;;;14.63;5.83;;;;;;;-143.84;63.34;45125.22;5130318;28;20438;-72
2022/10/09 03:15:51;;;;;;;6.83;6.03;;;;;;;-143.84;63.00;45138.56;5129954;28;20523;-72
2022/10/09 03:18:18;;;;;;;6.00;5.03;;;;;;;-143.84;62.66;45104.28;5129614;28;20438;-72
2022/10/09 03:20:45;;;;;;;10.40;5.00;;;;;;;-143.84;62.18;45104.28;5129819;28;20434;-72
2022/10/09 03:23:13;;;;;;;14.70;5.03;;;;;;;-143.84;61.49;45102.38;5129781;28;21059;-72
2022/10/09 03:25:41;;;;;;;5.43;4.37;;;;;;;-143.84;61.06;45117.63;5129787;27;20521;-73
2022/10/09 03:28:08;;;;;;;4.73;4.20;;;;;;;-143.84;60.32;45117.63;5130083;28;20450;-73
2022/10/09 03:30:35;;;;;;;11.47;5.83;;;;;;;-143.84;59.67;45119.53;5129561;28;20497;-72
2022/10/09 03:33:03;;;;;;;7.70;4.57;;;;;;;-143.84;59.45;45132.84;5129833;28;21172;-72
2022/10/09 03:35:30;;;;;;;6.20;4.60;;;;;;;-143.84;59.02;45106.19;5129269;28;20438;-73
2022/10/09 03:37:57;;;;;;;10.30;4.03;;;;;;;-143.84;58.41;45115.72;5129584;28;20440;-72
2022/10/09 03:40:25;;;;;;;6.53;4.00;;;;;;;-143.84;58.25;45115.72;5129356;28;20441;-73
2022/10/09 03:42:53;;;;;;;6.40;3.27;;;;;;;-143.84;58.22;45127.13;5129253;28;20479;-73
2022/10/09 03:45:20;;;;;;;13.10;3.80;;;;;;;-143.84;57.57;45104.28;5131143;27;20448;-73
2022/10/09 03:47:47;;;;;;;12.13;4.40;;;;;;;-143.84;57.62;45123.34;5133288;27;20434;-72
2022/10/09 03:50:15;;;;;;;5.87;3.20;;;;;;;-143.84;57.17;45130.94;5133374;27;20451;-73
2022/10/09 03:52:42;;;;;;;8.30;4.80;;;;;;;-143.84;57.24;45132.84;5133378;27;20943;-73
2022/10/09 03:55:09;;;;;;;4.30;3.90;;;;;;;-143.84;57.21;45117.63;5133061;27;20507;-72
2022/10/09 03:57:36;;;;;;;8.63;4.13;;;;;;;-143.84;56.88;45108.09;5133489;27;20438;-73
2022/10/09 04:00:07;;;;;;;3.23;3.03;;;;;;;-143.84;56.93;45119.53;5132940;27;20446;-72
2022/10/09 04:02:35;;;;;;;7.10;3.70;;;;;;;-143.84;56.75;45104.28;5133098;27;20459;-73
2022/10/09 04:05:02;;;;;;;6.33;3.90;;;;;;;-143.84;56.78;45123.34;5132921;27;20504;-73
2022/10/09 04:07:29;;;;;;;4.93;3.90;;;;;;;-143.84;56.75;45087.16;5132857;27;20453;-72
2022/10/09 04:09:56;;;;;;;7.47;4.00;;;;;;;-143.84;56.42;45111.91;5133081;27;20928;-73
2022/10/09 04:12:24;;;;;;;10.90;3.90;;;;;;;-143.84;56.27;45113.81;5133421;27;20462;-72
2022/10/09 04:14:51;;;;;;;14.60;3.93;;;;;;;-143.84;56.46;45104.28;5124471;27;20443;-72
2022/10/09 04:17:19;;;;;;;3.43;3.13;;;;;;;-143.84;56.17;45148.09;5112249;28;20449;-72
2022/10/09 04:19:46;;;;;;;8.20;3.90;;;;;;;-143.84;55.77;45110.00;5112047;28;20451;-72
2022/10/09 04:22:14;;;;;;;8.43;3.77;;;;;;;-143.84;56.21;45102.38;5111979;28;20435;-72
2022/10/09 04:24:41;;;;;;;3.60;3.20;;;;;;;-143.84;56.44;45125.22;5112199;28;20493;-72
2022/10/09 04:27:08;;;;;;;4.97;4.10;;;;;;;-143.84;56.08;45119.53;5112239;28;20440;-72
2022/10/09 04:29:36;;;;;;;7.83;3.47;;;;;;;-143.84;56.37;45117.63;5111847;28;20500;-73
2022/10/09 04:32:03;;;;;;;10.70;3.43;;;;;;;-143.84;56.42;45125.22;5110757;28;20582;-69
2022/10/09 04:34:31;;;;;;;6.33;3.10;;;;;;;-143.84;56.23;45111.91;5111718;28;20427;-72
2022/10/09 04:36:59;;;;;;;9.77;3.63;;;;;;;-143.84;55.96;45113.81;5112436;28;20447;-74
2022/10/09 04:39:26;;;;;;;10.17;3.47;;;;;;;-143.84;56.25;45140.47;5111681;28;20515;-71
2022/10/09 04:41:53;;;;;;;3.37;3.07;;;;;;;-143.84;55.86;45134.75;5111191;28;20446;-72
2022/10/09 04:44:20;;;;;;;9.00;4.77;;;;;;;-143.84;56.04;45102.38;5111457;28;20490;-72
2022/10/09 04:46:51;;;;;;;5.03;3.70;;;;;;;-143.84;56.04;45111.91;5101021;28;20448;-71
2022/10/09 04:49:18;;;;;;;6.13;3.60;;;;;;;-143.84;55.82;45142.38;5091111;28;20930;-72
2022/10/09 04:51:47;;;;;;;3.97;3.30;;;;;;;-143.84;56.05;45140.47;5090871;28;20501;-75
2022/10/09 04:54:14;;;;;;;9.60;3.37;;;;;;;-143.84;56.16;45130.94;5090866;28;20469;-72
2022/10/09 04:56:41;;;;;;;7.40;3.70;;;;;;;-143.84;56.00;45102.38;5089584;28;20452;-73
2022/10/09 04:59:08;;;;;;;10.13;3.40;;;;;;;-143.84;56.06;45129.03;5090591;28;20974;-72
2022/10/09 05:01:35;;;;;;;11.93;3.50;;;;;;;-143.84;56.54;45106.19;5090190;28;20493;-73
2022/10/09 05:04:02;;;;;;;3.60;3.40;;;;;;;-143.84;56.34;45113.81;5090900;28;20534;-71
2022/10/09 05:06:30;;;;;;;3.77;3.47;;;;;;;-143.84;56.19;45108.09;5090651;28;20489;-72
2022/10/09 05:08:58;;;;;;;5.83;3.10;;;;;;;-143.84;56.18;45094.78;5090519;28;20449;-72
2022/10/09 05:11:26;;;;;;;4.50;3.77;;;;;;;-143.84;56.30;45094.78;5090196;28;20457;-72
2022/10/09 05:13:55;;;;;;;13.20;3.87;;;;;;;-143.84;56.11;45113.81;5090641;28;20937;-72
2022/10/09 05:16:25;;;;;;;5.77;3.07;;;;;;;-143.84;55.66;45125.22;5089763;28;20452;-70
2022/10/09 05:18:54;;;;;;;5.70;4.40;;;;;;;-143.84;55.19;45100.47;5094309;28;20837;-70
2022/10/09 05:21:22;;;;;;;6.23;3.20;;;;;;;-143.84;54.89;45104.28;5093634;28;20452;-71
2022/10/09 05:23:50;;;;;;;6.40;3.43;;;;;;;-143.84;53.77;45123.34;5111471;28;20467;-71
2022/10/09 05:26:21;;;;;;;18.47;3.50;;;;;;;-143.84;53.07;45100.47;5110362;28;20446;-71
2022/10/09 05:28:48;;;;;;;4.10;3.63;;;;;;;-143.84;52.00;45115.72;5110535;28;21067;-71
2022/10/09 05:31:19;;;;;;;6.67;3.50;;;;;;;-143.84;51.14;45092.88;5110374;28;20858;-72
2022/10/09 05:33:46;;;;;;;7.80;3.43;;;;;;;-143.84;50.18;45085.25;5111044;28;20825;-70
2022/10/09 05:36:14;;;;;;;3.57;3.27;;;;;;;-143.84;49.41;45115.72;5092766;28;20775;-71
2022/10/09 05:38:41;;;;;;;3.67;2.77;;;;;;;-143.84;49.08;45064.31;5111212;28;20437;-71
2022/10/09 05:41:12;;;;;;;8.20;2.80;;;;;;;-143.84;48.25;45085.25;5110778;28;20999;-70
2022/10/09 05:43:42;;;;;;;6.87;3.83;;;;;;;-143.84;47.12;45071.91;5110379;28;20490;-70
2022/10/09 05:46:11;;;;;;;12.60;3.93;;;;;;;-143.84;46.77;45100.47;5109960;28;20453;-70
2022/10/09 05:48:40;;;;;;;6.37;2.90;;;;;;;-143.84;45.54;45089.06;5091520;28;20447;-71
2022/10/09 05:51:12;;;;;;;5.17;3.17;;;;;;;-143.84;45.49;45071.91;5090014;28;20492;-70
2022/10/09 05:53:40;;;;;;;5.70;3.50;;;;;;;-143.84;45.15;45092.88;5090448;28;20776;-73
2022/10/09 05:56:12;;;;;;;3.27;2.97;;;;;;;-143.84;44.58;45068.13;5089958;28;20815;-72
2022/10/09 05:58:42;;;;;;;4.90;3.60;;;;;;;-143.84;44.29;45064.31;5090001;28;20500;-72
2022/10/09 06:01:10;;;;;;;5.97;2.93;;;;;;;-143.84;44.04;45062.41;5089223;28;20432;-73
2022/10/09 06:03:37;;;;;;;4.83;3.17;;;;;;;-143.84;43.71;45094.78;5089062;28;20436;-70
2022/10/09 06:06:07;;;;;;;5.00;3.60;;;;;;;-143.84;43.47;45039.53;5088796;28;20463;-71
2022/10/09 06:08:34;;;;;;;4.80;3.60;;;;;;;-143.84;43.13;45062.41;5088963;28;20489;-71
2022/10/09 06:11:09;;;;;;;6.60;3.80;;;;;;;-143.84;43.02;45052.88;5089870;28;20455;-71
2022/10/09 06:13:36;;;;;;;7.10;3.60;;;;;;;-143.84;42.82;45037.66;5089486;28;20439;-72
2022/10/09 06:16:05;;;;;;;11.63;3.73;;;;;;;-143.84;42.72;45056.69;5089506;28;20497;-72
2022/10/09 06:18:32;;;;;;;3.67;3.37;;;;;;;-143.84;42.80;45070.00;5071158;28;20444;-71
2022/10/09 06:21:01;;;;;;;4.70;3.37;;;;;;;-143.84;42.45;45049.06;5089307;28;20431;-71
2022/10/09 06:23:30;;;;;;;5.30;3.33;;;;;;;-143.84;42.35;45041.44;5089571;28;20439;-71
2022/10/09 06:25:59;;;;;;;5.80;3.23;;;;;;;-143.84;42.48;45062.41;5089232;28;20471;-71
2022/10/09 06:28:27;;;;;;;6.13;3.60;;;;;;;-143.84;41.94;45071.91;5089362;28;20440;-71
2022/10/09 06:30:59;;;;;;;6.77;3.40;;;;;;;-143.84;41.60;45043.34;5088822;28;20444;-72
2022/10/09 06:33:30;;;;;;;7.43;3.10;;;;;;;-143.84;41.42;45045.25;5088942;28;20427;-72
2022/10/09 06:35:59;;;;;;;5.30;3.70;;;;;;;-143.84;41.08;45026.22;5089013;28;20452;-71
2022/10/09 06:38:27;;;;;;;6.00;3.10;;;;;;;-143.84;41.04;45054.78;5087770;28;20444;-71
2022/10/09 06:40:54;;;;;;;4.03;3.10;;;;;;;-143.84;40.92;45014.78;5090965;28;20455;-71
2022/10/09 06:43:21;;;;;;;7.23;3.20;;;;;;;-143.84;40.20;45039.53;5088266;28;20544;-72
2022/10/09 06:45:48;;;;;;;5.43;3.30;;;;;;;-143.84;40.67;45033.84;5087856;28;20541;-71
2022/10/09 06:48:15;;;;;;;10.03;3.20;;;;;;;-143.84;40.05;45037.66;5084004;28;20520;-71
2022/10/09 06:50:44;;;;;;;6.57;3.10;;;;;;;-143.84;39.79;45047.16;5088134;28;20466;-70
2022/10/09 06:53:11;;;;;;;5.43;3.20;;;;;;;-143.84;39.72;45030.03;5087936;28;20970;-72
2022/10/09 06:55:38;;;;;;;3.60;3.30;;;;;;;-143.84;39.26;45022.41;5087704;28;20452;-72
2022/10/09 06:58:05;;;;;;;3.47;2.90;;;;;;;-143.84;39.27;45030.03;5088309;28;20951;-71
2022/10/09 07:00:32;;;;;;;3.17;2.90;;;;;;;-143.84;38.82;45024.31;5087678;28;20497;-72
2022/10/09 07:02:59;;;;;;;9.73;2.60;;;;;;;-143.84;38.99;45037.66;5088304;28;20440;-71
2022/10/09 07:05:26;;;;;;;4.13;3.27;;;;;;;-143.84;38.99;45050.97;5088181;28;20482;-71
2022/10/09 07:07:55;;;;;;;6.03;3.10;;;;;;;-143.84;38.58;45045.25;5088404;28;20459;-71
2022/10/09 07:10:22;;;;;;;10.10;3.40;;;;;;;-143.84;38.72;44980.53;5088229;28;20953;-72
2022/10/09 07:12:49;;;;;;;4.93;3.17;;;;;;;-143.84;38.14;45024.31;5085980;28;20980;-71
2022/10/09 07:15:17;;;;;;;4.23;3.83;;;;;;;-143.84;37.64;45005.28;5087392;28;20493;-71
2022/10/09 07:17:44;;;;;;;11.43;2.97;;;;;;;-143.84;37.33;45003.38;5088084;28;20452;-71
2022/10/09 07:20:11;;;;;;;4.57;2.87;;;;;;;-143.84;36.85;45030.03;5089420;28;21014;-71
2022/10/09 07:22:38;;;;;;;5.30;2.70;;;;;;;-143.84;37.36;45010.97;5092336;28;20443;-70
2022/10/09 07:25:10;;;;;;;6.47;4.00;;;;;;;-143.84;37.00;45030.03;5091915;28;21180;-71
2022/10/09 07:27:37;;;;;;;8.63;2.97;;;;;;;-143.84;37.34;44976.72;5092032;28;20459;-70
2022/10/09 07:30:05;;;;;;;2.60;2.30;;;;;;;-143.84;36.34;45005.28;5091564;28;21004;-71
2022/10/09 07:32:33;;;;;;;8.00;3.30;;;;;;;-143.84;36.09;45014.78;5092585;28;20452;-70
2022/10/09 07:35:00;;;;;;;4.30;2.83;;;;;;;-143.84;34.76;44995.75;5074603;28;20466;-72
2022/10/09 07:37:27;;;;;;;4.43;2.70;;;;;;;-143.84;34.72;45016.69;5091952;28;20465;-72
2022/10/09 07:39:54;;;;;;;7.37;2.80;;;;;;;-143.84;34.42;44995.75;5093524;28;20537;-72
2022/10/09 07:42:23;;;;;;;6.23;2.97;;;;;;;-143.84;33.80;44995.75;5093726;28;20440;-72
2022/10/09 07:44:50;;;;;;;3.70;2.57;;;;;;;-143.84;33.72;44982.41;5089381;28;20541;-72
2022/10/09 07:47:17;;;;;;;7.50;2.40;;;;;;;-143.84;34.08;44999.56;5091156;28;20512;-72
2022/10/09 07:49:44;;;;;;;3.33;3.00;;;;;;;-143.84;33.30;44986.22;5090557;28;20497;-73
2022/10/09 07:52:11;;;;;;;8.80;2.80;;;;;;;-143.84;33.13;45014.78;5088673;28;20452;-73
2022/10/09 07:54:38;;;;;;;5.73;3.00;;;;;;;-143.84;33.67;44991.94;5090327;28;20448;-71
2022/10/09 07:57:06;;;;;;;4.43;3.00;;;;;;;-143.84;33.26;44976.72;5090324;28;20448;-71
2022/10/09 07:59:34;;;;;;;3.50;2.67;;;;;;;-143.84;33.43;45010.97;5092319;28;20451;-72
2022/10/09 08:02:01;;;;;;;2.63;2.40;;;;;;;-143.84;32.87;44980.53;5093766;28;20443;-71
2022/10/09 08:04:28;;;;;;;5.10;2.87;;;;;;;-143.84;33.54;44988.13;5092650;28;20476;-71
2022/10/09 08:06:57;;;;;;;2.60;2.40;;;;;;;-143.84;33.25;44986.22;5093222;28;20803;-71
2022/10/09 08:09:24;;;;;;;3.60;2.30;;;;;;;-143.84;33.00;44974.81;5092852;28;20497;-71
2022/10/09 08:11:51;;;;;;;3.40;3.00;;;;;;;-143.84;32.61;44976.72;5086914;28;20464;-71
2022/10/09 08:14:18;;;;;;;3.70;2.87;;;;;;;-143.84;31.87;44978.63;5090753;28;20444;-72
2022/10/09 08:16:48;;;;;;;7.37;2.67;;;;;;;-143.84;32.30;44990.03;5088613;28;20452;-74
2022/10/09 08:19:15;;;;;;;5.83;2.70;;;;;;;-143.84;32.10;44972.91;5088190;28;20462;-75
2022/10/09 08:21:42;;;;;;;2.70;2.27;;;;;;;-143.84;31.46;44961.47;5089650;28;20472;-75
2022/10/09 08:24:10;;;;;;;2.33;2.23;;;;;;;-143.84;31.41;44969.09;5091128;28;20443;-75
2022/10/09 08:26:37;;;;;;;4.60;2.50;;;;;;;-143.84;31.27;44974.81;5090216;28;20483;-75
2022/10/09 08:29:07;;;;;;;9.43;2.50;;;;;;;-143.84;31.61;44961.47;5090608;28;20525;-75
2022/10/09 08:31:34;;;;;;;3.87;2.60;;;;;;;-143.84;31.24;44991.94;5089747;28;20525;-75
2022/10/09 08:34:04;;;;;;;7.70;3.13;;;;;;;-143.84;31.26;44965.28;5091028;28;20447;-75
2022/10/09 08:36:32;;;;;;;3.83;2.23;;;;;;;-143.84;31.49;44969.09;5090846;28;20953;-75
2022/10/09 08:38:59;;;;;;;4.03;2.70;;;;;;;-143.84;31.11;44991.94;5090962;28;20452;-75
2022/10/09 08:41:40;;;;;;;3.37;3.07;;;;;;;-143.84;31.56;44980.53;5090849;28;20450;-74
2022/10/09 08:44:15;;;;;;;5.30;2.40;;;;;;;-143.84;31.94;44948.16;5093948;28;20896;-74
2022/10/09 08:47:02;;;;;;;8.03;3.37;;;;;;;-143.84;31.66;44969.09;5091401;28;20490;-74
2022/10/09 08:49:39;;;;;;;6.60;2.37;;;;;;;-143.84;31.48;44942.44;5090434;28;20440;-75
2022/10/09 08:52:17;;;;;;;12.70;3.40;;;;;;;-143.84;31.37;44953.88;5088648;28;20458;-75
2022/10/09 08:54:44;;;;;;;5.07;3.93;;;;;;;-143.84;31.45;44980.53;5089547;28;20443;-75
2022/10/09 08:57:15;;;;;;;5.53;3.73;;;;;;;-143.84;31.72;44965.28;5090987;28;20497;-74
2022/10/09 08:59:42;;;;;;;7.80;2.83;;;;;;;-143.84;30.99;44957.66;5092648;28;20448;-74
2022/10/09 09:02:31;;;;;;;8.27;3.00;;;;;;;-143.84;31.38;44931.00;5096517;28;20961;-74
2022/10/09 09:05:14;;;;;;;3.60;3.30;;;;;;;-143.84;30.95;44948.16;5088733;28;20984;-74
2022/10/09 09:07:49;;;;;;;10.90;4.23;;;;;;;-143.84;31.21;44946.25;5088566;28;21014;-74
2022/10/09 09:10:27;;;;;;;10.03;3.00;;;;;;;-143.84;31.69;44931.00;5087891;28;20562;-74
2022/10/09 09:12:57;;;;;;;10.50;2.70;;;;;;;-143.84;30.79;44946.25;5094955;28;20459;-74
2022/10/09 09:15:43;;;;;;;4.63;4.20;;;;;;;-143.84;30.89;44950.06;5088644;28;20448;-74
2022/10/09 09:18:24;;;;;;;3.03;2.83;;;;;;;-143.84;30.98;44948.16;5087833;28;20435;-74
2022/10/09 09:20:54;;;;;;;3.17;2.50;;;;;;;-143.84;31.45;44953.88;5094284;28;20957;-74
2022/10/09 09:23:26;;;;;;;3.57;3.30;;;;;;;-143.84;30.55;44936.72;5088649;28;20973;-74
2022/10/09 09:25:54;;;;;;;8.73;2.60;;;;;;;-143.84;30.10;44953.88;5092654;28;20479;-74
2022/10/09 09:28:26;;;;;;;4.53;3.27;;;;;;;-143.84;30.26;44911.97;5088251;28;20447;-74
2022/10/09 09:30:57;;;;;;;4.70;2.87;;;;;;;-143.84;31.13;44974.81;5091132;28;21093;-74
2022/10/09 09:33:33;;;;;;;4.50;3.27;;;;;;;-143.84;30.67;44946.25;5092588;28;20469;-74
2022/10/09 09:36:09;;;;;;;8.40;3.57;;;;;;;-143.84;30.94;44967.19;5088636;28;20451;-75
2022/10/09 09:38:36;;;;;;;3.53;3.23;;;;;;;-143.84;31.41;44944.34;5088170;28;20718;-74
2022/10/09 09:41:04;;;;;;;3.80;3.50;;;;;;;-143.84;31.16;44929.09;5088278;28;20447;-74
2022/10/09 09:43:32;;;;;;;6.40;3.00;;;;;;;-143.84;30.87;44953.88;5091720;28;20487;-75
2022/10/09 09:46:00;;;;;;;3.50;3.20;;;;;;;-143.84;31.18;44942.44;5094524;28;20482;-74
2022/10/09 09:48:33;;;;;;;11.23;3.53;;;;;;;-143.84;31.02;44929.09;5098036;28;20448;-74
2022/10/09 09:51:03;;;;;;;3.60;3.27;;;;;;;-143.84;30.30;44950.06;5095087;28;20448;-72
2022/10/09 09:53:34;;;;;;;3.50;2.70;;;;;;;-143.84;30.88;44944.34;5091997;28;20443;-72
2022/10/09 09:56:01;;;;;;;10.37;4.03;;;;;;;-143.84;31.24;44942.44;5094422;28;20436;-73
2022/10/09 09:58:36;;;;;;;3.67;2.90;;;;;;;-143.84;30.62;44921.50;5089888;28;20965;-72
2022/10/09 10:01:06;;;;;;;7.30;3.40;;;;;;;-143.84;31.74;44955.75;5091241;28;20517;-72
2022/10/09 10:03:34;;;;;;;13.30;3.33;;;;;;;-143.84;31.37;44936.72;5088919;28;20440;-72
2022/10/09 10:06:03;;;;;;;3.30;3.10;;;;;;;-143.84;31.37;44965.28;5095490;28;20482;-72
2022/10/09 10:08:32;;;;;;;8.53;3.73;;;;;;;-143.84;31.06;44931.00;5103822;28;20444;-72
2022/10/09 10:11:03;;;;;;;7.40;3.70;;;;;;;-143.84;31.13;44940.53;5091505;28;20460;-72
2022/10/09 10:13:38;;;;;;;5.83;3.77;;;;;;;-143.84;30.97;44906.25;5094695;28;20439;-72
2022/10/09 10:16:08;;;;;;;7.13;3.60;;;;;;;-143.84;31.55;44929.09;5094215;28;20447;-75
2022/10/09 10:18:39;;;;;;;10.73;5.50;;;;;;;-143.84;31.21;44946.25;5100641;28;21317;-75
2022/10/09 10:21:14;;;;;;;7.20;4.00;;;;;;;-143.84;31.78;44955.75;5091679;28;20469;-75
2022/10/09 10:23:46;;;;;;;13.13;4.30;;;;;;;-143.84;32.13;44902.44;5090040;28;20451;-75
2022/10/09 10:26:22;;;;;;;10.10;3.93;;;;;;;-143.84;30.61;44925.31;5097398;28;20485;-74
2022/10/09 10:28:54;;;;;;;7.67;3.20;;;;;;;-143.84;31.85;44927.19;5094102;28;20799;-75
2022/10/09 10:31:36;;;;;;;4.03;3.10;;;;;;;-143.84;31.08;44925.31;5090097;28;20942;-75
2022/10/09 10:34:05;;;;;;;8.07;3.40;;;;;;;-143.84;31.03;44927.19;5091296;28;20444;-76
2022/10/09 10:36:35;;;;;;;6.80;5.00;;;;;;;-143.84;30.34;44957.66;5090421;28;20815;-75
2022/10/09 10:39:11;;;;;;;11.63;4.50;;;;;;;-143.84;31.47;44972.91;5092186;28;20450;-75
2022/10/09 10:41:44;;;;;;;7.53;3.27;;;;;;;-143.84;32.00;44948.16;5092654;28;20462;-75
2022/10/09 10:44:23;;;;;;;4.47;3.07;;;;;;;-143.84;31.84;44984.31;5107590;27;20539;-76
2022/10/09 10:46:55;;;;;;;7.37;3.33;;;;;;;-143.84;32.02;44974.81;5107688;28;20486;-75
2022/10/09 10:49:23;;;;;;;4.97;3.53;;;;;;;-143.84;33.36;44959.56;5105350;28;20454;-75
2022/10/09 10:52:04;;;;;;;9.60;3.00;;;;;;;-143.84;33.29;44961.47;5108180;28;20454;-76
2022/10/09 10:54:39;;;;;;;11.93;4.13;;;;;;;-143.84;32.73;44978.63;5105058;28;20455;-75
2022/10/09 10:57:15;;;;;;;6.70;4.07;;;;;;;-143.84;33.22;44963.38;5107973;28;20510;-74
2022/10/09 10:59:55;;;;;;;14.87;4.50;;;;;;;-143.84;33.62;44976.72;5108592;28;20449;-76
2022/10/09 11:02:57;;;;;;;6.50;3.20;;;;;;;-143.84;33.34;44959.56;5105632;28;20468;-78
2022/10/09 11:05:46;;;;;;;7.10;3.53;;;;;;;-143.84;32.56;44963.38;5109034;28;20482;-77
2022/10/09 11:08:32;;;;;;;4.30;3.90;;;;;;;-143.84;32.63;44946.25;5109375;28;21022;-78
2022/10/09 11:11:06;;;;;;;5.67;3.50;;;;;;;-143.84;32.83;44953.88;5106333;28;20474;-77
2022/10/09 11:13:39;;;;;;;5.13;4.00;;;;;;;-143.84;33.38;44976.72;5109093;28;20442;-78
2022/10/09 11:16:18;;;;;;;9.30;3.97;;;;;;;-143.84;33.48;44959.56;5108759;28;20447;-77
2022/10/09 11:18:58;;;;;;;6.43;3.83;;;;;;;-143.84;34.39;44969.09;5109045;28;20442;-77
2022/10/09 11:21:38;;;;;;;4.70;4.30;;;;;;;-143.84;34.02;44988.13;5087832;28;20450;-77
2022/10/09 11:24:21;;;;;;;10.17;4.20;;;;;;;-143.84;34.20;44957.66;5105834;28;20443;-75
2022/10/09 11:26:57;;;;;;;5.53;3.70;;;;;;;-143.84;33.89;44965.28;5107265;28;20471;-78